To NAV CANADA Home Page Login to a new session Search on AWWS site Feedback and Comments Disclaimer Vers la page française équivalente Tips FAQ What's new on the site To the Forecasts and Observations / NOTAM section To "File a Flight Plan" website Publications and other links Update of the User's profile FIC Telephone Numbers My Weather Data Folder Route Weather Data Regional Weather Data Local Weather Data To the Forecasts and Observations / NOTAM section
Request Generated 03/02/2015 at 14:56:39 UTC . Weather information available at that time is displayed.

METAR/TAF

OTTAWA/MACDONALD-CARTIER INTL/ON    

METAR CYOW 021400Z 23008KT 15SM FEW030 SCT053 BKN075 M08/M11 A3004
RMK SC1SC3AC1 SLP181=
SPECI CYOW 021318Z 23008KT 15SM SCT025 BKN080 M08/M11 A3003 RMK
SC4AC1 SLP178=
METAR CYOW 021300Z 23010KT 10SM -SN BKN024 OVC070 M08/M11 A3003 RMK
SC6AC2 VRY LGT SN SLP176=
SPECI CYOW 021253Z 23009KT 10SM -SN BKN028 OVC070 M08/M11 A3003 RMK
SC6AC2 SLP176=
METAR CYOW 021200Z CCA 23006KT 15SM BKN093 BKN120 BKN200 M10/M13
A3001 RMK AC5AC1CI1 SLP170=
METAR CYOW 021200Z 23006KT 15SM BKN093 BKN120 BKN200 M10/M13 A3001
RMK AC5AC1CI1 SLP170=

TAF CYOW 021440Z 0215/0312 23012KT P6SM BKN080
FM021700 28015G25KT P6SM BKN030 TEMPO 0217/0221 5SM -SHSN PROB30
0218/0220 1SM -SHSN VV012
FM022100 30015G25KT P6SM SCT030
FM030000 32010KT P6SM SKC
BECMG 0306/0308 VRB03KT
RMK NXT FCST BY 021800Z=
Your time UTC time
Weather data provided by Environment Canada and NAV CANADA